Create Tblcommutelog Verified Points Advance Search
| # | Trip ID | Id Commuter | Trip Date | Trip Num | Current Lat | Current Lng | Delta Distance | Current Time | Activity | Activity Confidence | Current Speed | |
|---|---|---|---|---|---|---|---|---|---|---|---|---|
| 73661 | 250922_783727_16450333_0835 | 783727 | (not set) | (not set) | 38.875804910286 | -77.005724651867 | 15.1377 | 2025-09-22 09:20:22 | on_foot | 100 | -0.44703925898772 | |
| 73662 | 250922_786801_16493786_0856 | 786801 | (not set) | (not set) | 38.831446557424 | -77.047448684852 | 0.4209 | 2025-09-22 09:21:38 | on_foot | 100 | 0.61244378481318 | |
| 73663 | 250922_786801_16493786_0856 | 786801 | (not set) | (not set) | 38.832360564823 | -77.047472868524 | 0.484 | 2025-09-22 09:22:52 | on_foot | 100 | 0.53644711078527 | |
| 73664 | 250922_780789_16421763_0827 | 780789 | (not set) | (not set) | 38.94316206197 | -77.287345591 | 22.2046 | 2025-09-22 09:23:51 | unknown | 100 | 14.314197072787 | |
| 73665 | 250922_786552_16421763_0924 | 786552 | (not set) | (not set) | 39.063042621165 | -77.051270026785 | 0 | 2025-09-22 09:24:31 | on_foot | 100 | 0.40680572567883 | |
| 73666 | 250922_780789_16421763_0827 | 780789 | (not set) | (not set) | 38.934389867282 | -77.265059296905 | 23.6128 | 2025-09-22 09:25:18 | unknown | 100 | 12.356165118421 | |
| 73667 | 250922_602545_16470472_0851 | 602545 | (not set) | (not set) | 38.987568923312 | -76.940310380375 | 4.6418 | 2025-09-22 09:26:04 | on_bicycle | 100 | 1.2695914955251 | |
| 73668 | 250922_788837_16496947_0922 | 788837 | (not set) | (not set) | 38.994637 | -77.1045665 | 0.2195 | 2025-09-22 09:27:09 | walking | 100 | 0.57668064409416 | |
| 73669 | 250922_770910_16486049_0824 | 770910 | (not set) | (not set) | 38.804952408358 | -77.044740404333 | 9.4018 | 2025-09-22 09:27:52 | on_bicycle | 100 | 0.84043380689692 | |
| 73670 | 250922_785511_16514495_0854 | 785511 | (not set) | (not set) | 39.2863351 | -76.613564 | 0.2245 | 2025-09-22 09:11:23 | still | 100 | 2.659883590977 | |
| 73671 | 250922_785511_16514495_0854 | 785511 | (not set) | (not set) | 39.2748472 | -76.6120337 | 1.0225 | 2025-09-22 09:16:18 | in_vehicle | 100 | 2.9102255760101 | |
| 73672 | 250922_785511_16514495_0854 | 785511 | (not set) | (not set) | 39.2717356 | -76.6016244 | 1.7174 | 2025-09-22 09:20:22 | in_vehicle | 100 | 5.4851717077794 | |
| 73673 | 250922_785511_16514495_0854 | 785511 | (not set) | (not set) | 39.2655066 | -76.6069282 | 2.7002 | 2025-09-22 09:24:06 | in_vehicle | 100 | 5.0694251969208 | |
| 73674 | 250922_782739_16510109_0918 | 782739 | (not set) | (not set) | 39.11143675845 | -77.541333482007 | 0.817 | 2025-09-22 09:29:45 | on_bicycle | 100 | 3.3930279757168 | |
| 73675 | 250922_759217_16464305_0831 | 759217 | (not set) | (not set) | 38.910040713621 | -77.044107498882 | 11.7066 | 2025-09-22 09:31:33 | still | 33 | -0.44703925898772 | |
| 73676 | 250922_786801_16493786_0856 | 786801 | (not set) | (not set) | 38.852058530574 | -77.043498888462 | 2.1801 | 2025-09-22 09:32:18 | in_vehicle | 100 | 7.2688583511404 | |
| 73677 | 250922_786552_16421763_0924 | 786552 | (not set) | (not set) | 39.015790529804 | -77.043482361917 | 0.1241 | 2025-09-22 09:33:57 | still | 33 | -0.44703925898772 | |
| 73678 | 250922_786552_16421763_0924 | 786552 | (not set) | (not set) | 39.015790529804 | -77.043482361917 | 0.1241 | 2025-09-22 09:33:57 | still | 33 | -0.44703925898772 | |
| 73679 | 250922_770910_16486049_0824 | 770910 | (not set) | (not set) | 38.806469741472 | -77.060088516972 | 10.2401 | 2025-09-22 09:35:15 | in_vehicle | 100 | 1.3366473843733 | |
| 73680 | 250922_760249_16513536_0927 | 760249 | (not set) | (not set) | 38.878864 | -77.0087319 | 0 | 2025-09-22 09:37:13 | walking | 100 | -0.44703925898772 |